Redfield, Kansas
Current Conditions -  °F | °C
As of 12:35 AM on Wednesday 26 Nov 2014 (Local Time) from KPTS Reporting Station
Clear Clear  
Wind Chill: 32°   Ceiling: Unl
Heat Index: 39°   Visibility: 10mi
Dew Point: 25°   Wind: 10mph
Humidity: 58%   Direction: 170°S
Pressure: 29.99"   Gusts: NA
Location:  37.84°N, 94.88°W
Report Text: KPTS 260635Z AUTO 17009KT 10SM CLR 04/M04 A2999 RMK AO2 T00381039
Loading
Personal Weather Stations






























Interactive Weather Map New forecast layout! Learn more

10-Day Weather Forecast

Advertisements
Track Severe Weather on mobile